sensor_id;sensor_type;location;lat;lon;timestamp;pressure;altitude;pressure_sealevel;temperature;humidity
25650;BME280;13505;45.196;5.696;2023-02-22T05:01:09;99264.47;;;7.00;80.56
25650;BME280;13505;45.196;5.696;2023-02-22T05:06:00;99269.59;;;7.03;80.47
25650;BME280;13505;45.196;5.696;2023-02-22T05:10:50;99262.69;;;7.00;79.32
25650;BME280;13505;45.196;5.696;2023-02-22T05:15:41;99270.66;;;6.97;80.85
25650;BME280;13505;45.196;5.696;2023-02-22T05:20:33;99262.00;;;6.93;81.12
25650;BME280;13505;45.196;5.696;2023-02-22T05:25:24;99258.63;;;6.90;81.91
25650;BME280;13505;45.196;5.696;2023-02-22T05:30:15;99258.72;;;6.87;82.16
25650;BME280;13505;45.196;5.696;2023-02-22T05:35:06;99255.28;;;6.84;80.55
25650;BME280;13505;45.196;5.696;2023-02-22T05:39:57;99243.75;;;6.90;81.08
25650;BME280;13505;45.196;5.696;2023-02-22T05:44:47;99247.16;;;6.94;80.88
25650;BME280;13505;45.196;5.696;2023-02-22T05:49:38;99239.56;;;6.84;80.34
25650;BME280;13505;45.196;5.696;2023-02-22T05:54:28;99238.78;;;6.81;80.98
25650;BME280;13505;45.196;5.696;2023-02-22T05:59:18;99243.19;;;6.80;81.09
25650;BME280;13505;45.196;5.696;2023-02-22T06:04:09;99249.22;;;6.82;82.12
25650;BME280;13505;45.196;5.696;2023-02-22T06:09:00;99246.19;;;6.66;81.96
25650;BME280;13505;45.196;5.696;2023-02-22T06:13:51;99254.09;;;6.65;81.96
25650;BME280;13505;45.196;5.696;2023-02-22T06:18:42;99251.38;;;6.68;85.02
25650;BME280;13505;45.196;5.696;2023-02-22T06:23:32;99261.66;;;6.76;83.96
25650;BME280;13505;45.196;5.696;2023-02-22T06:28:22;99261.41;;;6.85;84.60
25650;BME280;13505;45.196;5.696;2023-02-22T06:33:13;99266.56;;;6.88;83.44
25650;BME280;13505;45.196;5.696;2023-02-22T06:38:04;99285.44;;;7.00;84.30
25650;BME280;13505;45.196;5.696;2023-02-22T06:42:55;99289.75;;;7.02;84.21
25650;BME280;13505;45.196;5.696;2023-02-22T06:47:46;99281.88;;;7.02;83.10
25650;BME280;13505;45.196;5.696;2023-02-22T06:52:41;99295.53;;;7.14;82.82
25650;BME280;13505;45.196;5.696;2023-02-22T06:57:31;99295.41;;;7.74;83.78
25650;BME280;13505;45.196;5.696;2023-02-22T07:02:22;99288.47;;;8.00;80.13
25650;BME280;13505;45.196;5.696;2023-02-22T07:07:12;99293.31;;;8.12;78.22
25650;BME280;13505;45.196;5.696;2023-02-22T07:12:03;99294.53;;;8.27;78.21
25650;BME280;13505;45.196;5.696;2023-02-22T07:21:54;99309.03;;;8.39;77.29
25650;BME280;13505;45.196;5.696;2023-02-22T07:26:48;99297.53;;;8.42;78.17
25650;BME280;13505;45.196;5.696;2023-02-22T07:31:38;99318.41;;;7.94;81.40
25650;BME280;13505;45.196;5.696;2023-02-22T07:36:28;99321.66;;;8.02;81.28
25650;BME280;13505;45.196;5.696;2023-02-22T07:41:19;99315.63;;;8.26;81.36
25650;BME280;13505;45.196;5.696;2023-02-22T07:46:10;99308.34;;;8.34;78.86
25650;BME280;13505;45.196;5.696;2023-02-22T07:51:00;99308.75;;;8.21;79.99
25650;BME280;13505;45.196;5.696;2023-02-22T07:55:51;99309.19;;;8.34;79.88
25650;BME280;13505;45.196;5.696;2023-02-22T08:00:41;99312.13;;;8.52;80.63
25650;BME280;13505;45.196;5.696;2023-02-22T08:05:35;99304.94;;;8.30;80.78
25650;BME280;13505;45.196;5.696;2023-02-22T08:10:26;99316.00;;;8.15;83.46
25650;BME280;13505;45.196;5.696;2023-02-22T08:20:13;99311.19;;;8.53;81.34
25650;BME280;13505;45.196;5.696;2023-02-22T08:25:03;99317.81;;;8.89;78.16
25650;BME280;13505;45.196;5.696;2023-02-22T08:29:55;99324.22;;;9.29;76.82
25650;BME280;13505;45.196;5.696;2023-02-22T08:34:46;99327.16;;;9.44;75.81
25650;BME280;13505;45.196;5.696;2023-02-22T08:39:36;99312.25;;;9.44;74.73
25650;BME280;13505;45.196;5.696;2023-02-22T08:44:26;99333.03;;;9.28;74.89
25650;BME280;13505;45.196;5.696;2023-02-22T08:49:17;99330.31;;;9.07;77.74
25650;BME280;13505;45.196;5.696;2023-02-22T08:54:07;99332.69;;;9.38;76.66
25650;BME280;13505;45.196;5.696;2023-02-22T08:58:58;99328.22;;;9.40;78.15
25650;BME280;13505;45.196;5.696;2023-02-22T09:03:49;99337.03;;;9.39;78.14
25650;BME280;13505;45.196;5.696;2023-02-22T09:08:40;99336.75;;;9.23;79.35
25650;BME280;13505;45.196;5.696;2023-02-22T09:13:30;99337.78;;;9.42;84.93
25650;BME280;13505;45.196;5.696;2023-02-22T09:18:21;99338.91;;;9.35;77.60
25650;BME280;13505;45.196;5.696;2023-02-22T09:23:11;99318.84;;;9.32;77.02
25650;BME280;13505;45.196;5.696;2023-02-22T09:28:03;99318.16;;;9.49;77.95
25650;BME280;13505;45.196;5.696;2023-02-22T09:32:56;99314.25;;;9.60;78.16
25650;BME280;13505;45.196;5.696;2023-02-22T09:37:47;99314.03;;;9.66;78.61
25650;BME280;13505;45.196;5.696;2023-02-22T09:42:45;99319.59;;;9.58;78.37
25650;BME280;13505;45.196;5.696;2023-02-22T09:47:41;99326.03;;;9.73;78.44
25650;BME280;13505;45.196;5.696;2023-02-22T09:52:42;99316.19;;;9.56;77.75
25650;BME280;13505;45.196;5.696;2023-02-22T09:57:39;99316.66;;;9.20;78.60
25650;BME280;13505;45.196;5.696;2023-02-22T10:02:34;99308.47;;;9.28;78.93
25650;BME280;13505;45.196;5.696;2023-02-22T10:07:33;99316.91;;;9.38;78.92
25650;BME280;13505;45.196;5.696;2023-02-22T10:12:50;99317.94;;;9.10;81.97
25650;BME280;13505;45.196;5.696;2023-02-22T10:17:55;99318.84;;;9.32;81.39
25650;BME280;13505;45.196;5.696;2023-02-22T10:28:30;99321.63;;;9.74;79.00
25650;BME280;13505;45.196;5.696;2023-02-22T10:33:20;99305.69;;;9.55;78.78
25650;BME280;13505;45.196;5.696;2023-02-22T10:38:24;99317.03;;;9.79;78.46
25650;BME280;13505;45.196;5.696;2023-02-22T10:43:15;99307.69;;;9.93;76.91
25650;BME280;13505;45.196;5.696;2023-02-22T10:48:09;99309.28;;;9.97;76.07
25650;BME280;13505;45.196;5.696;2023-02-22T10:53:01;99306.53;;;10.00;75.40
25650;BME280;13505;45.196;5.696;2023-02-22T10:58:00;99306.00;;;10.12;74.77
25650;BME280;13505;45.196;5.696;2023-02-22T11:03:02;99300.09;;;10.28;75.31
25650;BME280;13505;45.196;5.696;2023-02-22T11:08:13;99302.84;;;10.47;74.23
25650;BME280;13505;45.196;5.696;2023-02-22T11:13:16;99293.69;;;10.33;74.24
25650;BME280;13505;45.196;5.696;2023-02-22T11:18:22;99283.31;;;10.51;73.17
25650;BME280;13505;45.196;5.696;2023-02-22T11:23:19;99292.47;;;10.63;73.66
25650;BME280;13505;45.196;5.696;2023-02-22T11:28:27;99285.97;;;10.70;72.41
25650;BME280;13505;45.196;5.696;2023-02-22T11:33:23;99279.19;;;10.65;71.16
25650;BME280;13505;45.196;5.696;2023-02-22T11:43:18;99264.03;;;10.70;71.35
25650;BME280;13505;45.196;5.696;2023-02-22T11:48:18;99259.34;;;10.35;72.50
25650;BME280;13505;45.196;5.696;2023-02-22T11:53:39;99245.03;;;10.61;72.26
25650;BME280;13505;45.196;5.696;2023-02-22T12:19:20;99212.81;;;10.93;71.61
25650;BME280;13505;45.196;5.696;2023-02-22T12:24:18;99205.06;;;10.90;71.14
25650;BME280;13505;45.196;5.696;2023-02-22T12:29:30;99201.84;;;11.02;71.23
25650;BME280;13505;45.196;5.696;2023-02-22T12:34:32;99201.72;;;11.23;71.28
25650;BME280;13505;45.196;5.696;2023-02-22T12:44:36;99185.16;;;11.56;69.55
25650;BME280;13505;45.196;5.696;2023-02-22T12:49:33;99193.16;;;11.72;70.14
25650;BME280;13505;45.196;5.696;2023-02-22T12:54:46;99184.47;;;11.88;69.36
25650;BME280;13505;45.196;5.696;2023-02-22T12:59:46;99169.38;;;11.90;68.78
25650;BME280;13505;45.196;5.696;2023-02-22T13:04:38;99167.22;;;11.98;68.20
25650;BME280;13505;45.196;5.696;2023-02-22T13:20:11;99162.25;;;11.75;70.02
25650;BME280;13505;45.196;5.696;2023-02-22T13:25:44;99168.44;;;11.73;70.09
25650;BME280;13505;45.196;5.696;2023-02-22T13:30:40;99166.91;;;12.05;71.71
25650;BME280;13505;45.196;5.696;2023-02-22T13:41:00;99155.94;;;11.95;69.67
25650;BME280;13505;45.196;5.696;2023-02-22T13:56:18;99153.28;;;11.95;70.80
25650;BME280;13505;45.196;5.696;2023-02-22T14:06:36;99145.84;;;11.85;71.14
25650;BME280;13505;45.196;5.696;2023-02-22T14:16:28;99133.44;;;12.21;70.60
25650;BME280;13505;45.196;5.696;2023-02-22T14:21:21;99140.41;;;12.40;68.95
25650;BME280;13505;45.196;5.696;2023-02-22T14:26:22;99137.00;;;12.54;68.07
25650;BME280;13505;45.196;5.696;2023-02-22T14:32:02;99137.53;;;12.61;67.77
25650;BME280;13505;45.196;5.696;2023-02-22T14:36:47;99136.91;;;12.72;67.52
25650;BME280;13505;45.196;5.696;2023-02-22T14:41:57;99126.00;;;12.62;68.12
25650;BME280;13505;45.196;5.696;2023-02-22T14:46:53;99121.94;;;12.22;68.36
25650;BME280;13505;45.196;5.696;2023-02-22T14:51:56;99111.69;;;12.16;69.22
25650;BME280;13505;45.196;5.696;2023-02-22T14:57:11;99113.50;;;12.32;68.66
25650;BME280;13505;45.196;5.696;2023-02-22T15:02:11;99113.53;;;12.64;71.33
25650;BME280;13505;45.196;5.696;2023-02-22T15:07:29;99116.94;;;12.50;68.44
25650;BME280;13505;45.196;5.696;2023-02-22T15:12:26;99109.09;;;12.48;67.85
25650;BME280;13505;45.196;5.696;2023-02-22T15:17:22;99108.56;;;12.57;68.66
25650;BME280;13505;45.196;5.696;2023-02-22T15:22:31;99093.28;;;12.79;67.98
25650;BME280;13505;45.196;5.696;2023-02-22T15:27:24;99089.38;;;12.86;66.09
25650;BME280;13505;45.196;5.696;2023-02-22T15:32:23;99089.44;;;12.84;65.47
25650;BME280;13505;45.196;5.696;2023-02-22T15:37:20;99087.25;;;12.77;65.96
25650;BME280;13505;45.196;5.696;2023-02-22T15:42:16;99089.09;;;12.91;66.56
25650;BME280;13505;45.196;5.696;2023-02-22T15:47:29;99094.81;;;12.83;66.68
25650;BME280;13505;45.196;5.696;2023-02-22T15:52:24;99089.88;;;12.77;66.48
25650;BME280;13505;45.196;5.696;2023-02-22T15:57:20;99084.09;;;12.70;67.02
25650;BME280;13505;45.196;5.696;2023-02-22T16:02:31;99090.41;;;12.67;66.89
25650;BME280;13505;45.196;5.696;2023-02-22T16:07:22;99089.03;;;12.60;68.54
25650;BME280;13505;45.196;5.696;2023-02-22T16:22:30;99089.78;;;12.30;69.09
25650;BME280;13505;45.196;5.696;2023-02-22T16:27:24;99089.38;;;12.38;69.99
25650;BME280;13505;45.196;5.696;2023-02-22T16:32:14;99088.00;;;12.31;69.92
25650;BME280;13505;45.196;5.696;2023-02-22T16:37:18;99096.75;;;12.15;70.63
25650;BME280;13505;45.196;5.696;2023-02-22T16:42:14;99088.75;;;12.17;71.23
25650;BME280;13505;45.196;5.696;2023-02-22T16:47:09;99092.06;;;12.20;70.79
25650;BME280;13505;45.196;5.696;2023-02-22T16:52:05;99089.75;;;12.14;70.90
25650;BME280;13505;45.196;5.696;2023-02-22T16:56:57;99090.78;;;12.11;70.96
25650;BME280;13505;45.196;5.696;2023-02-22T17:01:51;99089.16;;;12.09;70.82
25650;BME280;13505;45.196;5.696;2023-02-22T17:06:41;99083.72;;;11.94;71.27
25650;BME280;13505;45.196;5.696;2023-02-22T17:11:34;99102.09;;;11.80;72.34
25650;BME280;13505;45.196;5.696;2023-02-22T17:16:30;99094.09;;;11.81;71.65
25650;BME280;13505;45.196;5.696;2023-02-22T17:21:21;99086.53;;;11.73;73.31
25650;BME280;13505;45.196;5.696;2023-02-22T17:26:12;99091.47;;;11.64;73.82
25650;BME280;13505;45.196;5.696;2023-02-22T17:31:04;99094.97;;;11.64;73.63
25650;BME280;13505;45.196;5.696;2023-02-22T17:35:57;99101.66;;;11.54;75.45
25650;BME280;13505;45.196;5.696;2023-02-22T17:40:49;99100.25;;;11.47;75.95
25650;BME280;13505;45.196;5.696;2023-02-22T17:45:44;99108.94;;;11.49;76.47
25650;BME280;13505;45.196;5.696;2023-02-22T17:50:39;99106.06;;;11.53;76.39
25650;BME280;13505;45.196;5.696;2023-02-22T17:55:30;99115.53;;;11.57;76.30
25650;BME280;13505;45.196;5.696;2023-02-22T18:00:25;99131.66;;;11.53;76.92
25650;BME280;13505;45.196;5.696;2023-02-22T18:05:22;99132.81;;;11.47;77.11
25650;BME280;13505;45.196;5.696;2023-02-22T18:10:12;99134.59;;;11.47;77.79
25650;BME280;13505;45.196;5.696;2023-02-22T18:15:03;99133.97;;;11.59;77.00
25650;BME280;13505;45.196;5.696;2023-02-22T18:19:54;99130.63;;;11.55;76.18
25650;BME280;13505;45.196;5.696;2023-02-22T18:24:44;99133.44;;;11.52;76.35
25650;BME280;13505;45.196;5.696;2023-02-22T18:29:34;99136.53;;;11.43;76.75
25650;BME280;13505;45.196;5.696;2023-02-22T18:34:25;99122.63;;;11.39;77.68
25650;BME280;13505;45.196;5.696;2023-02-22T18:39:17;99123.72;;;11.53;76.90
25650;BME280;13505;45.196;5.696;2023-02-22T18:44:08;99131.38;;;11.57;76.03
25650;BME280;13505;45.196;5.696;2023-02-22T18:49:00;99128.75;;;11.57;74.91
25650;BME280;13505;45.196;5.696;2023-02-22T18:53:51;99126.09;;;11.57;76.02
25650;BME280;13505;45.196;5.696;2023-02-22T18:58:45;99121.00;;;11.54;76.37
25650;BME280;13505;45.196;5.696;2023-02-22T19:03:36;99130.06;;;11.49;76.73
25650;BME280;13505;45.196;5.696;2023-02-22T19:08:27;99118.03;;;11.43;77.32
25650;BME280;13505;45.196;5.696;2023-02-22T19:13:17;99121.53;;;11.43;78.74
25650;BME280;13505;45.196;5.696;2023-02-22T19:18:08;99132.13;;;11.43;79.56
25650;BME280;13505;45.196;5.696;2023-02-22T19:22:59;99125.03;;;11.44;81.19
25650;BME280;13505;45.196;5.696;2023-02-22T19:27:50;99134.97;;;11.39;81.42
25650;BME280;13505;45.196;5.696;2023-02-22T19:32:40;99130.16;;;11.29;83.49
25650;BME280;13505;45.196;5.696;2023-02-22T19:37:36;99129.69;;;11.21;84.94
25650;BME280;13505;45.196;5.696;2023-02-22T19:42:26;99136.06;;;10.98;88.25
25650;BME280;13505;45.196;5.696;2023-02-22T19:47:17;99131.22;;;11.08;88.08
25650;BME280;13505;45.196;5.696;2023-02-22T19:52:07;99145.41;;;11.05;89.07
25650;BME280;13505;45.196;5.696;2023-02-22T19:56:57;99137.22;;;11.11;88.98
25650;BME280;13505;45.196;5.696;2023-02-22T20:01:51;99135.06;;;11.00;90.32
25650;BME280;13505;45.196;5.696;2023-02-22T20:06:44;99140.88;;;10.89;91.78
25650;BME280;13505;45.196;5.696;2023-02-22T20:11:34;99138.25;;;10.70;93.22
25650;BME280;13505;45.196;5.696;2023-02-22T20:16:26;99144.88;;;10.79;92.54
25650;BME280;13505;45.196;5.696;2023-02-22T20:21:31;99142.09;;;10.82;91.05
25650;BME280;13505;45.196;5.696;2023-02-22T20:26:23;99129.75;;;10.83;91.02
25650;BME280;13505;45.196;5.696;2023-02-22T20:31:14;99143.41;;;10.73;92.60
25650;BME280;13505;45.196;5.696;2023-02-22T20:36:05;99153.59;;;10.62;93.78
25650;BME280;13505;45.196;5.696;2023-02-22T20:40:55;99147.75;;;10.34;95.07
25650;BME280;13505;45.196;5.696;2023-02-22T20:45:45;99155.28;;;10.44;94.00
25650;BME280;13505;45.196;5.696;2023-02-22T20:50:36;99155.84;;;10.51;94.36
25650;BME280;13505;45.196;5.696;2023-02-22T20:55:27;99156.72;;;10.51;94.79
25650;BME280;13505;45.196;5.696;2023-02-22T21:00:17;99152.19;;;10.34;96.07
25650;BME280;13505;45.196;5.696;2023-02-22T21:05:08;99152.44;;;10.28;96.38
25650;BME280;13505;45.196;5.696;2023-02-22T21:09:59;99151.41;;;10.32;96.18
25650;BME280;13505;45.196;5.696;2023-02-22T21:14:49;99137.16;;;10.36;95.23
25650;BME280;13505;45.196;5.696;2023-02-22T21:19:40;99138.31;;;10.50;94.00
25650;BME280;13505;45.196;5.696;2023-02-22T21:24:31;99128.44;;;10.55;93.26
25650;BME280;13505;45.196;5.696;2023-02-22T21:29:22;99132.00;;;10.54;92.82
25650;BME280;13505;45.196;5.696;2023-02-22T21:34:15;99128.44;;;10.55;92.29
25650;BME280;13505;45.196;5.696;2023-02-22T21:39:10;99123.25;;;10.32;94.89
25650;BME280;13505;45.196;5.696;2023-02-22T21:44:07;99116.41;;;10.28;96.13
25650;BME280;13505;45.196;5.696;2023-02-22T21:48:57;99122.31;;;10.33;96.13
25650;BME280;13505;45.196;5.696;2023-02-22T21:53:50;99116.31;;;10.30;96.15
25650;BME280;13505;45.196;5.696;2023-02-22T21:58:41;99105.16;;;10.25;97.00
25650;BME280;13505;45.196;5.696;2023-02-22T22:03:32;99106.91;;;10.24;97.05
25650;BME280;13505;45.196;5.696;2023-02-22T22:08:25;99103.59;;;10.21;97.34
25650;BME280;13505;45.196;5.696;2023-02-22T22:13:17;99103.13;;;10.30;97.36
25650;BME280;13505;45.196;5.696;2023-02-22T22:18:07;99092.69;;;10.28;97.06
25650;BME280;13505;45.196;5.696;2023-02-22T22:22:57;99097.81;;;10.12;98.01
25650;BME280;13505;45.196;5.696;2023-02-22T22:27:48;99098.59;;;10.14;97.78
25650;BME280;13505;45.196;5.696;2023-02-22T22:32:39;99094.09;;;10.16;97.87
25650;BME280;13505;45.196;5.696;2023-02-22T22:37:30;99089.44;;;10.02;98.50
25650;BME280;13505;45.196;5.696;2023-02-22T22:42:20;99093.09;;;10.19;97.71
25650;BME280;13505;45.196;5.696;2023-02-22T22:47:11;99084.69;;;10.11;99.36
25650;BME280;13505;45.196;5.696;2023-02-22T22:52:01;99081.16;;;9.91;99.10
25650;BME280;13505;45.196;5.696;2023-02-22T22:56:52;99077.06;;;10.04;98.37
